Time;durP1;ratioP1;P1;durP2;ratioP2;P2;SDS_P1;SDS_P2;PMS_P1;PMS_P2;Temp;Humidity;BMP_temperature;BMP_pressure;BME280_temperature;BME280_humidity;BME280_pressure;Samples;Min_cycle;Max_cycle;Signal;HPM_P1;HPM_P2
2024/03/30 00:00:55;;;;;;;0.30;0.30;;;;;;;18.48;48.52;99323.78;4457422;32;33939;-87
2024/03/30 00:03:22;;;;;;;4.30;2.22;;;;;;;18.86;47.94;99325.94;4458154;32;35040;-87
2024/03/30 00:06:02;;;;;;;16.80;0.95;;;;;;;18.69;48.32;99330.03;4444562;32;33609;-87
2024/03/30 00:08:29;;;;;;;0.08;0.08;;;;;;;18.33;49.19;99336.63;4451026;32;34222;-87
2024/03/30 00:11:04;;;;;;;0.43;0.43;;;;;;;18.01;49.87;99329.44;4458477;32;33578;-87
2024/03/30 00:13:31;;;;;;;1.10;0.43;;;;;;;17.88;50.44;99337.59;4456245;32;34711;-87
2024/03/30 00:15:57;;;;;;;0.20;0.17;;;;;;;17.80;50.63;99331.16;4457030;32;33917;-87
2024/03/30 00:18:24;;;;;;;0.37;0.37;;;;;;;17.62;50.96;99331.66;4444369;32;32960;-87
2024/03/30 00:20:51;;;;;;;1.17;0.65;;;;;;;17.70;50.93;99327.50;4443409;32;35157;-86
2024/03/30 00:23:17;;;;;;;0.20;0.20;;;;;;;17.36;52.09;99333.72;4470366;32;34576;-86
2024/03/30 00:25:54;;;;;;;0.75;0.37;;;;;;;17.38;51.78;99322.94;4444180;32;32786;-87
2024/03/30 00:28:21;;;;;;;1.37;0.50;;;;;;;17.50;51.38;99321.09;4444186;32;34392;-87
2024/03/30 00:30:48;;;;;;;2.35;0.52;;;;;;;17.40;51.39;99321.84;4465796;32;33102;-87
2024/03/30 00:33:15;;;;;;;0.85;0.85;;;;;;;17.14;52.19;99320.41;4470228;32;34496;-86
2024/03/30 00:35:44;;;;;;;0.43;0.43;;;;;;;17.02;52.47;99322.19;4444593;32;35061;-88
2024/03/30 00:38:10;;;;;;;0.13;0.08;;;;;;;17.02;52.41;99330.19;4457019;32;33522;-88
2024/03/30 00:40:37;;;;;;;0.10;0.10;;;;;;;17.01;52.47;99325.81;4444494;32;33059;-89
2024/03/30 00:43:03;;;;;;;1.37;0.75;;;;;;;16.97;52.56;99324.38;4431627;32;34728;-88
2024/03/30 00:45:30;;;;;;;0.05;0.05;;;;;;;16.84;52.90;99331.59;4484510;32;33738;-88
2024/03/30 00:47:56;;;;;;;6.60;0.95;;;;;;;16.71;53.14;99322.81;4457428;32;33279;-88
2024/03/30 00:50:23;;;;;;;0.15;0.15;;;;;;;16.75;53.02;99334.97;4445253;32;34095;-88
2024/03/30 00:52:50;;;;;;;0.05;0.05;;;;;;;16.64;53.25;99335.78;4444067;32;32980;-88
2024/03/30 00:55:17;;;;;;;0.13;0.10;;;;;;;16.67;53.00;99326.69;4463957;32;33299;-88
2024/03/30 00:57:44;;;;;;;0.35;0.35;;;;;;;16.52;53.49;99334.03;4456694;32;33952;-88
2024/03/30 01:00:11;;;;;;;0.55;0.55;;;;;;;16.34;53.96;99325.63;4444116;32;32273;-87
2024/03/30 01:02:38;;;;;;;0.47;0.47;;;;;;;16.20;54.26;99324.00;4470132;32;34491;-87
2024/03/30 01:05:06;;;;;;;1.55;0.45;;;;;;;16.15;54.63;99330.63;4457230;32;35511;-88
2024/03/30 01:07:33;;;;;;;1.15;1.15;;;;;;;16.11;54.69;99324.66;4457271;32;32409;-88
2024/03/30 01:10:00;;;;;;;0.70;0.47;;;;;;;16.02;54.88;99328.84;4456461;32;32014;-88
2024/03/30 01:12:27;;;;;;;0.20;0.20;;;;;;;16.01;54.92;99324.50;4456140;32;34844;-87
2024/03/30 01:14:54;;;;;;;0.73;0.73;;;;;;;16.02;54.49;99325.34;4484303;32;33595;-87
2024/03/30 01:17:20;;;;;;;0.57;0.52;;;;;;;15.94;54.79;99323.22;4456904;32;33095;-88
2024/03/30 01:19:48;;;;;;;0.73;0.52;;;;;;;16.03;54.60;99330.53;4444468;32;33856;-87
2024/03/30 01:22:14;;;;;;;0.47;0.30;;;;;;;15.85;54.88;99329.22;4470154;32;33942;-87
2024/03/30 01:24:41;;;;;;;6.05;0.60;;;;;;;15.70;55.52;99335.66;4445475;32;33223;-87
2024/03/30 01:27:13;;;;;;;1.92;0.65;;;;;;;15.57;55.92;99325.91;4442904;32;33780;-86
2024/03/30 01:29:42;;;;;;;3.10;1.35;;;;;;;15.45;56.45;99326.75;4470215;32;33769;-86
2024/03/30 01:32:10;;;;;;;1.55;1.05;;;;;;;15.59;55.82;99326.62;4431322;32;34377;-86
2024/03/30 01:34:37;;;;;;;0.47;0.47;;;;;;;15.44;56.14;99341.03;4443453;32;32629;-86
2024/03/30 01:37:04;;;;;;;0.22;0.22;;;;;;;15.73;55.17;99335.47;4456864;32;33799;-86
2024/03/30 01:39:31;;;;;;;1.35;1.25;;;;;;;15.25;56.71;99330.00;4429478;32;32318;-86
2024/03/30 01:41:57;;;;;;;0.00;0.00;;;;;;;15.28;56.39;99335.91;4456445;32;33815;-86
2024/03/30 01:44:24;;;;;;;0.52;0.52;;;;;;;15.14;57.13;99332.53;4444036;32;32750;-86
2024/03/30 01:46:52;;;;;;;0.43;0.35;;;;;;;15.10;57.38;99338.09;4432090;32;34361;-86
2024/03/30 01:49:19;;;;;;;0.57;0.52;;;;;;;15.09;57.39;99320.41;4444987;32;32834;-86
2024/03/30 01:51:48;;;;;;;0.17;0.17;;;;;;;15.13;57.43;99320.19;4456607;32;32820;-86
2024/03/30 01:54:16;;;;;;;0.98;0.95;;;;;;;15.17;57.21;99324.34;4456352;32;35258;-87
2024/03/30 01:56:43;;;;;;;1.12;1.12;;;;;;;15.36;56.45;99320.28;4456667;32;33033;-88
2024/03/30 01:59:10;;;;;;;0.00;0.00;;;;;;;15.45;56.07;99325.91;4435674;32;33980;-90
2024/03/30 02:01:44;;;;;;;0.20;0.20;;;;;;;15.58;55.75;99319.59;4456519;32;32902;-89
2024/03/30 02:04:11;;;;;;;0.52;0.52;;;;;;;15.79;54.92;99325.19;4445149;32;34123;-89
2024/03/30 02:06:38;;;;;;;0.00;0.00;;;;;;;15.75;54.90;99322.87;4443881;32;32587;-90
2024/03/30 02:09:05;;;;;;;11.43;1.77;;;;;;;15.78;54.51;99326.19;4455133;32;33337;-89
2024/03/30 02:11:32;;;;;;;0.00;0.00;;;;;;;15.88;53.98;99329.00;4441992;32;32554;-90
2024/03/30 02:13:58;;;;;;;1.55;0.70;;;;;;;15.97;54.00;99323.03;4455046;32;32159;-90
2024/03/30 02:16:28;;;;;;;2.85;1.27;;;;;;;15.97;53.47;99317.69;4443519;32;32726;-89
2024/03/30 02:18:55;;;;;;;1.65;0.85;;;;;;;16.35;52.73;99311.31;4449248;32;34158;-89
2024/03/30 02:21:22;;;;;;;8.00;1.67;;;;;;;16.28;52.77;99318.06;4456998;32;32542;-88
2024/03/30 02:23:48;;;;;;;0.00;0.00;;;;;;;16.26;52.68;99312.00;4457157;32;33673;-87
2024/03/30 02:26:15;;;;;;;0.00;0.00;;;;;;;16.53;52.05;99317.94;4456487;32;32550;-87
2024/03/30 02:28:42;;;;;;;0.45;0.45;;;;;;;16.77;51.43;99311.72;4457154;32;34071;-87
2024/03/30 02:31:08;;;;;;;0.13;0.13;;;;;;;16.93;50.92;99306.91;4443829;31;33363;-85
2024/03/30 02:33:36;;;;;;;4.37;1.83;;;;;;;16.65;51.35;99310.81;4430360;32;34653;-84
2024/03/30 02:36:02;;;;;;;0.45;0.40;;;;;;;16.90;50.68;99317.78;4456442;32;32846;-85
2024/03/30 02:38:30;;;;;;;0.52;0.52;;;;;;;16.96;50.57;99317.34;4455940;32;33033;-85
2024/03/30 02:40:57;;;;;;;1.75;1.40;;;;;;;17.13;50.12;99314.19;4443356;32;34608;-87
2024/03/30 02:43:23;;;;;;;1.75;1.17;;;;;;;17.19;49.84;99312.88;4443773;32;33032;-87
2024/03/30 02:45:50;;;;;;;1.90;0.88;;;;;;;17.24;49.77;99317.84;4456459;32;33024;-87
2024/03/30 02:48:17;;;;;;;0.25;0.15;;;;;;;17.35;49.49;99318.69;4456583;32;34391;-88
2024/03/30 02:50:43;;;;;;;0.00;0.00;;;;;;;17.33;49.74;99315.31;4456824;32;33318;-89
2024/03/30 02:53:10;;;;;;;2.80;1.35;;;;;;;17.44;49.32;99317.09;4456773;32;32075;-89
2024/03/30 02:55:37;;;;;;;0.13;0.08;;;;;;;17.50;49.04;99310.44;4431102;32;34103;-89
2024/03/30 02:58:04;;;;;;;0.77;0.77;;;;;;;17.43;49.48;99318.09;4443659;32;32612;-89
2024/03/30 03:00:31;;;;;;;1.67;0.65;;;;;;;17.42;49.55;99316.38;4469559;32;34504;-89
2024/03/30 03:02:58;;;;;;;0.43;0.37;;;;;;;17.21;50.08;99310.94;4431110;32;34711;-88
2024/03/30 03:05:24;;;;;;;0.10;0.10;;;;;;;16.96;50.84;99311.16;4453138;32;33815;-89
2024/03/30 03:07:51;;;;;;;0.30;0.20;;;;;;;16.87;51.12;99308.22;4443455;32;32226;-89
2024/03/30 03:10:18;;;;;;;0.17;0.17;;;;;;;17.05;50.54;99311.28;4469341;32;34491;-88
2024/03/30 03:12:44;;;;;;;0.13;0.13;;;;;;;17.06;50.62;99307.66;4469024;32;34786;-89
2024/03/30 03:15:11;;;;;;;1.10;0.50;;;;;;;16.68;51.83;99304.41;4443225;32;32276;-90
2024/03/30 03:17:38;;;;;;;0.98;0.77;;;;;;;16.52;52.30;99305.59;4447002;32;33521;-87
2024/03/30 03:20:08;;;;;;;6.78;1.40;;;;;;;16.57;51.81;99311.41;4469846;32;32728;-86
2024/03/30 03:22:35;;;;;;;8.05;0.47;;;;;;;16.26;52.69;99312.88;4463304;32;33323;-86
2024/03/30 03:25:03;;;;;;;22.67;1.55;;;;;;;16.17;53.10;99318.03;4456756;32;33294;-86
2024/03/30 03:27:30;;;;;;;1.37;0.62;;;;;;;16.04;53.16;99318.91;4464896;32;33808;-89
2024/03/30 03:29:56;;;;;;;0.62;0.60;;;;;;;15.92;53.73;99325.16;4455139;32;34217;-90
2024/03/30 03:32:23;;;;;;;3.25;1.45;;;;;;;15.87;53.82;99332.66;4432626;32;33310;-89
2024/03/30 03:34:50;;;;;;;0.75;0.60;;;;;;;15.68;54.13;99330.47;4458835;32;33119;-89
2024/03/30 03:37:16;;;;;;;0.20;0.20;;;;;;;15.65;54.32;99328.03;4445209;32;32225;-89
2024/03/30 03:39:43;;;;;;;0.73;0.73;;;;;;;15.66;54.13;99326.19;4445139;32;34913;-88
2024/03/30 03:42:10;;;;;;;0.35;0.30;;;;;;;15.54;54.57;99327.91;4444532;32;32984;-87
2024/03/30 03:44:36;;;;;;;0.47;0.47;;;;;;;15.41;54.97;99335.91;4470284;32;34834;-88
2024/03/30 03:47:03;;;;;;;0.25;0.22;;;;;;;15.44;55.16;99325.06;4445158;32;34798;-89
2024/03/30 03:49:30;;;;;;;2.75;0.65;;;;;;;15.31;55.08;99324.22;4458371;32;32346;-90
2024/03/30 03:51:57;;;;;;;0.20;0.20;;;;;;;15.26;55.51;99318.38;4458230;32;33765;-90
2024/03/30 03:54:25;;;;;;;1.10;1.00;;;;;;;15.28;55.28;99327.94;4455560;32;34116;-89
2024/03/30 03:56:52;;;;;;;1.20;1.08;;;;;;;15.30;55.27;99322.53;4458150;32;32757;-89
2024/03/30 03:59:18;;;;;;;0.30;0.30;;;;;;;14.99;56.48;99321.16;4471011;32;33248;-86
2024/03/30 04:01:46;;;;;;;3.17;0.98;;;;;;;15.30;55.34;99314.56;4444875;32;33241;-86
2024/03/30 04:04:15;;;;;;;0.32;0.32;;;;;;;15.13;55.92;99314.87;4432237;32;34517;-86
2024/03/30 04:06:42;;;;;;;0.37;0.08;;;;;;;15.23;55.62;99319.44;4444530;32;32174;-86
2024/03/30 04:09:08;;;;;;;1.25;0.47;;;;;;;15.28;55.60;99321.78;4457996;32;33664;-88
2024/03/30 04:11:36;;;;;;;0.45;0.45;;;;;;;15.27;55.67;99323.59;4457482;32;34945;-88
2024/03/30 04:14:03;;;;;;;0.10;0.10;;;;;;;15.33;55.64;99325.84;4470855;32;34473;-87
2024/03/30 04:16:30;;;;;;;2.25;1.80;;;;;;;14.86;56.77;99334.47;4445268;32;32020;-88
2024/03/30 04:18:57;;;;;;;15.93;2.22;;;;;;;14.74;57.29;99332.63;4444880;32;34008;-88
2024/03/30 04:21:23;;;;;;;0.05;0.05;;;;;;;14.54;58.13;99339.31;4457354;32;32765;-88
2024/03/30 04:23:50;;;;;;;2.72;0.50;;;;;;;14.64;57.82;99334.22;4457843;32;33152;-90
2024/03/30 04:26:18;;;;;;;6.05;1.95;;;;;;;14.60;58.01;99329.09;4431957;32;33799;-88
2024/03/30 04:28:45;;;;;;;2.00;1.20;;;;;;;14.70;57.77;99333.78;4457459;32;34611;-87
2024/03/30 04:31:12;;;;;;;5.25;0.65;;;;;;;14.76;57.37;99330.72;4457189;32;33919;-86
2024/03/30 04:33:39;;;;;;;0.80;0.80;;;;;;;14.89;57.07;99339.56;4456400;32;34001;-86
2024/03/30 04:36:06;;;;;;;0.35;0.35;;;;;;;14.86;57.16;99334.47;4456543;32;32187;-86
2024/03/30 04:38:34;;;;;;;0.55;0.47;;;;;;;15.18;56.82;99339.34;4457271;32;32906;-86
2024/03/30 04:41:05;;;;;;;1.90;0.57;;;;;;;14.89;57.57;99344.87;4444888;32;34183;-86
2024/03/30 04:43:35;;;;;;;0.40;0.40;;;;;;;14.94;57.97;99344.56;4457117;32;32857;-86
2024/03/30 04:46:06;;;;;;;0.10;0.10;;;;;;;15.06;57.82;99347.22;4458928;32;32945;-86
2024/03/30 04:48:33;;;;;;;0.80;0.80;;;;;;;14.93;58.33;99351.69;4456717;32;33111;-86
2024/03/30 04:51:00;;;;;;;0.43;0.43;;;;;;;14.92;58.25;99357.12;4457358;32;33398;-86
2024/03/30 04:53:32;;;;;;;0.65;0.47;;;;;;;15.02;58.14;99350.19;4444093;32;35226;-86
2024/03/30 04:56:05;;;;;;;0.20;0.20;;;;;;;14.92;58.50;99350.00;4455560;32;32808;-86
2024/03/30 04:58:32;;;;;;;0.93;0.73;;;;;;;14.95;58.52;99354.22;4429020;32;33363;-87
2024/03/30 05:01:01;;;;;;;0.52;0.25;;;;;;;14.95;58.28;99349.75;4444091;32;32911;-86
2024/03/30 05:03:27;;;;;;;0.25;0.15;;;;;;;15.09;57.84;99351.47;4457105;32;34078;-87
2024/03/30 05:05:55;;;;;;;0.10;0.10;;;;;;;15.08;58.08;99353.28;4443364;32;34174;-86
2024/03/30 05:08:22;;;;;;;0.00;0.00;;;;;;;15.21;57.96;99355.09;4454562;32;33355;-86
2024/03/30 05:10:50;;;;;;;0.62;0.28;;;;;;;15.41;57.13;99346.56;4457357;32;33194;-87
2024/03/30 05:13:17;;;;;;;12.90;2.65;;;;;;;15.31;57.45;99361.47;4444253;32;34922;-87
2024/03/30 05:15:43;;;;;;;6.18;0.60;;;;;;;15.59;56.54;99366.53;4456991;32;32435;-87
2024/03/30 05:18:11;;;;;;;2.28;0.57;;;;;;;15.41;57.29;99356.34;4457193;32;33344;-87
2024/03/30 05:20:49;;;;;;;0.00;0.00;;;;;;;15.70;56.46;99356.97;4443363;32;34841;-87
2024/03/30 05:23:17;;;;;;;0.10;0.10;;;;;;;15.64;56.52;99360.91;4457357;32;34544;-87
2024/03/30 05:25:45;;;;;;;1.85;0.85;;;;;;;15.58;56.84;99367.50;4468446;32;34113;-88
2024/03/30 05:28:17;;;;;;;0.20;0.20;;;;;;;15.58;56.82;99372.81;4456596;32;33669;-88
2024/03/30 05:30:46;;;;;;;0.00;0.00;;;;;;;15.69;56.63;99371.25;4442736;32;34101;-88
2024/03/30 05:33:12;;;;;;;4.65;0.65;;;;;;;15.55;57.12;99366.88;4456966;32;32824;-88
2024/03/30 05:35:39;;;;;;;0.30;0.30;;;;;;;15.71;56.77;99375.47;4456427;32;32091;-88
2024/03/30 05:38:07;;;;;;;0.10;0.10;;;;;;;15.77;56.66;99372.41;4447888;32;33634;-86
2024/03/30 05:40:34;;;;;;;0.30;0.30;;;;;;;15.80;56.61;99369.50;4443121;32;33824;-87
2024/03/30 05:43:04;;;;;;;0.25;0.13;;;;;;;15.79;56.83;99372.28;4455479;32;33793;-87
2024/03/30 05:45:32;;;;;;;0.73;0.55;;;;;;;15.96;56.54;99377.25;4452206;32;31656;-87
2024/03/30 05:47:59;;;;;;;0.00;0.00;;;;;;;16.02;56.30;99383.94;4454504;32;33842;-87
2024/03/30 05:50:26;;;;;;;1.85;0.50;;;;;;;15.82;57.06;99380.06;4456503;32;34051;-86
2024/03/30 05:52:53;;;;;;;0.40;0.40;;;;;;;16.14;56.12;99380.34;4441874;32;35147;-85
2024/03/30 05:55:20;;;;;;;0.28;0.28;;;;;;;16.17;56.22;99385.47;4455592;32;33127;-87
2024/03/30 05:57:47;;;;;;;0.00;0.00;;;;;;;16.53;54.96;99379.22;4456577;32;34140;-86
2024/03/30 06:00:15;;;;;;;0.95;0.65;;;;;;;16.51;54.81;99373.16;4444436;32;35060;-86
2024/03/30 06:02:43;;;;;;;0.32;0.32;;;;;;;16.34;55.33;99378.91;4443267;32;32929;-87
2024/03/30 06:05:10;;;;;;;2.58;0.37;;;;;;;16.07;56.01;99374.63;4469008;32;34055;-88
2024/03/30 06:07:37;;;;;;;0.70;0.55;;;;;;;16.18;55.88;99379.16;4455984;32;34435;-89
2024/03/30 06:10:05;;;;;;;0.20;0.20;;;;;;;16.22;56.08;99375.31;4455673;32;34461;-88
2024/03/30 06:12:31;;;;;;;0.43;0.20;;;;;;;16.12;56.14;99385.81;4465907;32;32527;-85
2024/03/30 06:14:58;;;;;;;1.17;0.93;;;;;;;16.29;55.67;99375.75;4454650;32;32380;-85
2024/03/30 06:17:25;;;;;;;0.20;0.20;;;;;;;16.27;56.34;99382.97;4469685;32;34697;-86
2024/03/30 06:19:52;;;;;;;0.00;0.00;;;;;;;16.54;55.20;99380.94;4456168;32;32737;-85
2024/03/30 06:22:18;;;;;;;0.30;0.28;;;;;;;16.68;54.38;99384.37;4442949;32;32610;-85
2024/03/30 06:24:45;;;;;;;0.43;0.43;;;;;;;16.80;54.09;99381.63;4443030;32;34226;-85
2024/03/30 06:27:12;;;;;;;3.05;1.35;;;;;;;16.96;53.98;99375.16;4455962;32;32665;-85
2024/03/30 06:29:39;;;;;;;0.30;0.30;;;;;;;16.91;54.32;99380.84;4455137;32;33441;-85
2024/03/30 06:32:06;;;;;;;0.28;0.28;;;;;;;17.14;53.37;99377.25;4468162;32;33913;-85
2024/03/30 06:34:33;;;;;;;0.60;0.20;;;;;;;17.18;53.21;99385.00;4452870;32;32779;-85
2024/03/30 06:36:59;;;;;;;11.00;0.35;;;;;;;16.89;53.74;99385.44;4442410;32;33223;-85
2024/03/30 06:43:40;;;;;;;2.95;1.80;;;;;;;17.04;53.04;99389.63;4467991;32;33558;-85
2024/03/30 06:44:59;;;;;;;0.70;0.70;;;;;;;16.72;54.15;99393.88;4458063;32;33161;-85
2024/03/30 06:47:27;;;;;;;0.73;0.52;;;;;;;16.69;54.69;99388.75;4452441;32;32875;-85
2024/03/30 06:49:53;;;;;;;0.35;0.32;;;;;;;16.95;54.37;99392.09;4468627;32;34460;-85
2024/03/30 06:52:20;;;;;;;0.77;0.77;;;;;;;16.77;54.61;99392.56;4442797;32;35546;-85
2024/03/30 06:54:47;;;;;;;0.88;0.88;;;;;;;17.27;53.42;99392.31;4467352;32;33014;-85
2024/03/30 06:57:13;;;;;;;0.10;0.10;;;;;;;17.54;52.34;99387.47;4457003;32;33406;-85
2024/03/30 06:59:40;;;;;;;0.35;0.35;;;;;;;17.57;52.30;99392.59;4444389;32;35650;-85
2024/03/30 07:02:07;;;;;;;0.43;0.28;;;;;;;17.62;52.59;99387.72;4457883;32;32542;-85
2024/03/30 07:04:33;;;;;;;0.73;0.73;;;;;;;18.05;51.24;99395.00;4456337;32;34096;-85
2024/03/30 07:07:03;;;;;;;1.10;0.22;;;;;;;18.00;51.46;99399.03;4444185;32;32863;-87
2024/03/30 07:09:30;;;;;;;2.20;1.25;;;;;;;17.79;52.56;99405.09;4484383;32;34568;-87
2024/03/30 07:11:57;;;;;;;8.02;2.37;;;;;;;17.66;52.55;99407.88;4457663;32;32915;-87
2024/03/30 07:14:25;;;;;;;0.03;0.03;;;;;;;17.99;52.00;99402.62;4457384;32;33507;-87
2024/03/30 07:16:55;;;;;;;0.22;0.22;;;;;;;18.05;51.60;99407.50;4456459;32;33672;-87
2024/03/30 07:19:22;;;;;;;0.30;0.30;;;;;;;17.85;52.03;99411.75;4458176;32;34375;-86
2024/03/30 07:21:49;;;;;;;0.65;0.65;;;;;;;17.82;51.96;99412.03;4452908;32;32389;-86
2024/03/30 07:24:17;;;;;;;2.42;1.55;;;;;;;17.97;51.98;99413.47;4470234;32;34186;-86
2024/03/30 07:26:44;;;;;;;10.13;1.45;;;;;;;18.20;51.54;99421.44;4456653;32;34810;-86
2024/03/30 07:29:11;;;;;;;0.40;0.40;;;;;;;18.43;51.77;99415.06;4443816;32;34709;-86
2024/03/30 07:31:38;;;;;;;1.30;1.20;;;;;;;18.51;51.37;99423.28;4457359;32;33226;-86
2024/03/30 07:34:04;;;;;;;2.17;0.73;;;;;;;18.83;51.06;99409.09;4457730;32;33281;-86
2024/03/30 07:36:31;;;;;;;0.85;0.85;;;;;;;19.13;50.89;99411.00;4447177;32;34603;-86
2024/03/30 07:38:57;;;;;;;6.97;1.08;;;;;;;19.42;49.85;99414.72;4469296;32;32685;-86
2024/03/30 07:41:24;;;;;;;0.68;0.68;;;;;;;19.66;48.44;99403.72;4444294;32;32983;-86
2024/03/30 07:43:51;;;;;;;7.87;0.80;;;;;;;19.61;48.76;99414.00;4444742;32;34251;-86
2024/03/30 07:46:17;;;;;;;0.10;0.10;;;;;;;19.22;49.55;99412.03;4468757;32;34327;-87
2024/03/30 07:48:44;;;;;;;0.17;0.17;;;;;;;19.53;49.58;99413.78;4445342;32;33002;-86
2024/03/30 07:51:11;;;;;;;1.15;0.70;;;;;;;19.69;48.74;99413.31;4457753;32;32349;-87
2024/03/30 07:53:37;;;;;;;0.35;0.35;;;;;;;19.97;47.89;99413.56;4444226;32;33736;-87
2024/03/30 07:56:04;;;;;;;0.30;0.30;;;;;;;20.21;47.10;99417.56;4443691;32;33242;-87
2024/03/30 07:58:31;;;;;;;3.70;0.43;;;;;;;20.33;47.28;99420.16;4457168;32;33906;-87
2024/03/30 08:00:57;;;;;;;1.55;0.55;;;;;;;20.46;47.08;99418.03;4456399;32;32781;-87
2024/03/30 08:03:25;;;;;;;0.85;0.85;;;;;;;20.68;45.77;99411.59;4456010;32;32603;-87
2024/03/30 08:05:56;;;;;;;0.13;0.13;;;;;;;20.43;44.53;99416.50;4456392;32;34898;-87
2024/03/30 08:08:23;;;;;;;0.17;0.17;;;;;;;20.73;44.04;99414.72;4453340;32;32773;-86
2024/03/30 08:10:50;;;;;;;3.78;1.02;;;;;;;20.88;43.74;99417.81;4469719;32;34329;-86
2024/03/30 08:13:17;;;;;;;0.50;0.50;;;;;;;20.93;42.81;99419.06;4457374;32;31872;-86
2024/03/30 08:15:45;;;;;;;4.85;0.65;;;;;;;21.03;42.44;99416.41;4455620;32;33810;-85
2024/03/30 08:18:12;;;;;;;0.93;0.90;;;;;;;21.36;41.86;99411.56;4457251;32;32809;-86
2024/03/30 08:20:39;;;;;;;0.80;0.65;;;;;;;21.58;41.46;99416.59;4457598;32;32374;-87
2024/03/30 08:23:06;;;;;;;3.65;2.25;;;;;;;21.83;41.13;99396.25;4456871;32;33476;-86
2024/03/30 08:25:35;;;;;;;0.45;0.22;;;;;;;21.90;41.34;99402.75;4433100;32;35244;-86
2024/03/30 08:28:03;;;;;;;1.48;0.60;;;;;;;22.29;40.59;99407.09;4458107;32;33575;-86
2024/03/30 08:30:30;;;;;;;0.55;0.45;;;;;;;22.32;40.20;99409.47;4457002;32;34497;-85
2024/03/30 08:32:57;;;;;;;5.32;0.62;;;;;;;22.71;39.44;99394.72;4457420;32;34567;-85
2024/03/30 08:35:24;;;;;;;0.73;0.50;;;;;;;22.92;39.39;99396.28;4445010;32;33096;-86
2024/03/30 08:37:51;;;;;;;8.18;2.12;;;;;;;22.90;38.96;99403.69;4444392;32;32633;-86
2024/03/30 08:40:18;;;;;;;0.37;0.37;;;;;;;22.87;39.67;99395.88;4444455;32;34109;-85
2024/03/30 08:42:45;;;;;;;1.30;1.00;;;;;;;23.13;38.82;99398.66;4442097;32;32115;-85
2024/03/30 08:45:12;;;;;;;0.08;0.08;;;;;;;23.12;38.64;99396.94;4457747;32;33373;-86
2024/03/30 08:47:39;;;;;;;1.20;0.60;;;;;;;23.03;39.29;99395.22;4444318;32;32577;-86
2024/03/30 08:50:05;;;;;;;0.98;0.85;;;;;;;23.21;39.10;99401.38;4470259;32;34440;-86
2024/03/30 08:52:32;;;;;;;8.85;1.42;;;;;;;22.86;39.98;99399.56;4455672;32;31911;-85
2024/03/30 08:54:59;;;;;;;0.40;0.32;;;;;;;22.78;38.80;99388.72;4431497;32;34545;-86
2024/03/30 08:57:25;;;;;;;6.25;2.10;;;;;;;22.41;39.80;99387.06;4457588;32;33275;-86
2024/03/30 08:59:52;;;;;;;2.45;0.68;;;;;;;22.95;38.24;99386.06;4457482;32;33064;-86
2024/03/30 09:02:19;;;;;;;1.35;1.12;;;;;;;22.96;37.77;99384.19;4431460;32;34844;-86
2024/03/30 09:04:47;;;;;;;0.65;0.55;;;;;;;23.48;37.72;99386.91;4455992;32;32535;-86
2024/03/30 09:07:14;;;;;;;0.10;0.10;;;;;;;23.39;36.91;99385.16;4457112;32;33489;-86
2024/03/30 09:09:41;;;;;;;0.13;0.13;;;;;;;23.14;36.13;99385.00;4431940;32;34323;-86
2024/03/30 09:12:08;;;;;;;0.13;0.13;;;;;;;23.70;36.06;99385.56;4457215;32;33289;-85
2024/03/30 09:14:35;;;;;;;7.62;0.40;;;;;;;23.85;35.19;99381.25;4470890;32;33641;-86
2024/03/30 09:17:04;;;;;;;0.00;0.00;;;;;;;23.83;35.55;99379.69;4451329;32;34898;-85
2024/03/30 09:19:31;;;;;;;0.68;0.62;;;;;;;23.99;34.81;99377.91;4457028;31;34097;-86
2024/03/30 09:21:57;;;;;;;2.03;1.08;;;;;;;24.72;35.38;99371.84;4456805;32;32341;-86
2024/03/30 09:24:24;;;;;;;;;;;;;;;24.30;33.69;99371.94;4470486;31;34273;-86
2024/03/30 09:26:51;;;;;;;0.00;0.00;;;;;;;23.98;34.79;99386.19;4444198;32;32988;-86
2024/03/30 09:29:18;;;;;;;13.23;1.95;;;;;;;23.84;34.42;99373.31;4457832;32;34059;-85
2024/03/30 09:31:44;;;;;;;26.40;1.95;;;;;;;23.76;34.38;99390.28;4456582;32;33187;-85
2024/03/30 09:34:11;;;;;;;2.72;0.57;;;;;;;23.94;35.11;99387.50;4445191;32;32996;-88
2024/03/30 09:36:38;;;;;;;0.52;0.52;;;;;;;23.97;34.04;99382.63;4443139;32;33409;-88
2024/03/30 09:39:04;;;;;;;8.32;1.95;;;;;;;24.07;34.20;99377.13;4458362;32;33944;-88
2024/03/30 09:41:40;;;;;;;1.45;0.65;;;;;;;24.28;33.50;99380.19;4444496;32;32547;-88
2024/03/30 09:44:07;;;;;;;1.23;0.43;;;;;;;23.98;34.83;99384.31;4470992;32;33912;-87
2024/03/30 09:46:34;;;;;;;2.20;1.27;;;;;;;24.24;34.65;99367.19;4464056;32;32608;-88
2024/03/30 09:49:01;;;;;;;0.32;0.25;;;;;;;24.67;33.45;99374.22;4470784;32;32947;-88
2024/03/30 09:51:29;;;;;;;1.48;0.68;;;;;;;25.19;33.35;99357.69;4448274;32;32230;-88
2024/03/30 09:53:55;;;;;;;6.80;1.50;;;;;;;25.26;33.24;99352.44;4470565;32;33974;-88
2024/03/30 09:56:24;;;;;;;2.53;1.00;;;;;;;25.28;32.79;99355.81;4470734;32;34025;-87
2024/03/30 09:58:52;;;;;;;0.40;0.40;;;;;;;25.25;32.42;99351.56;4445096;32;32800;-87
2024/03/30 10:01:18;;;;;;;4.95;1.55;;;;;;;24.34;33.93;99367.06;4457690;32;32783;-87
2024/03/30 10:03:45;;;;;;;2.40;1.02;;;;;;;24.53;32.84;99347.88;4458005;32;34272;-88
2024/03/30 10:06:22;;;;;;;1.45;0.35;;;;;;;24.67;33.25;99355.31;4470959;32;33963;-88
2024/03/30 10:08:50;;;;;;;1.17;0.45;;;;;;;24.74;32.52;99352.81;4458385;32;34401;-88
2024/03/30 10:11:19;;;;;;;0.57;0.57;;;;;;;24.72;32.98;99352.94;4457561;32;33172;-87
2024/03/30 10:13:57;;;;;;;0.15;0.10;;;;;;;24.66;32.79;99350.09;4473509;32;32870;-88
2024/03/30 10:16:24;;;;;;;0.15;0.15;;;;;;;25.20;32.80;99348.53;4441726;32;32520;-85
2024/03/30 10:18:52;;;;;;;15.55;2.50;;;;;;;25.33;33.03;99336.38;4469635;32;34759;-89
2024/03/30 10:21:18;;;;;;;0.65;0.65;;;;;;;25.81;31.98;99339.94;4444066;32;33473;-86
2024/03/30 10:23:46;;;;;;;0.17;0.17;;;;;;;25.34;32.44;99338.06;4468694;32;34632;-89
2024/03/30 10:26:17;;;;;;;5.78;0.60;;;;;;;25.60;31.91;99333.25;4444691;32;33675;-83
2024/03/30 10:28:56;;;;;;;2.33;0.47;;;;;;;25.49;31.61;99326.38;4454880;32;33119;-83
2024/03/30 10:31:26;;;;;;;1.95;1.05;;;;;;;25.16;31.99;99331.03;4463054;31;34564;-84
2024/03/30 10:34:01;;;;;;;26.62;2.17;;;;;;;25.57;31.92;99322.78;4445517;32;33013;-84
2024/03/30 10:36:40;;;;;;;0.32;0.10;;;;;;;25.74;31.95;99323.56;4459728;32;33156;-84
2024/03/30 10:39:10;;;;;;;0.25;0.15;;;;;;;25.57;31.39;99320.06;4457004;32;33772;-84
2024/03/30 10:41:47;;;;;;;0.80;0.10;;;;;;;25.76;31.69;99314.28;4445097;32;32454;-82
2024/03/30 10:44:17;;;;;;;1.85;1.33;;;;;;;25.96;31.26;99305.72;4444828;32;33892;-83
2024/03/30 10:46:45;;;;;;;9.20;1.10;;;;;;;25.32;31.80;99318.47;4460047;32;35063;-82
2024/03/30 10:49:21;;;;;;;1.23;0.90;;;;;;;25.26;31.66;99315.47;4458197;32;33782;-82
2024/03/30 10:51:55;;;;;;;7.78;2.83;;;;;;;25.83;31.07;99300.91;4457952;32;32677;-83
2024/03/30 10:54:25;;;;;;;0.40;0.40;;;;;;;26.43;30.81;99296.62;4444523;32;33023;-83
2024/03/30 10:57:03;;;;;;;2.83;1.48;;;;;;;26.07;30.87;99302.63;4445412;31;34363;-83
2024/03/30 10:59:41;;;;;;;11.88;1.65;;;;;;;26.19;29.33;99287.66;4456965;32;33989;-83
2024/03/30 11:02:23;;;;;;;2.53;0.90;;;;;;;25.97;29.44;99293.88;4459884;31;31931;-83
2024/03/30 11:04:53;;;;;;;11.05;0.93;;;;;;;25.91;30.00;99295.44;4456436;32;32920;-83
2024/03/30 11:07:21;;;;;;;2.35;1.75;;;;;;;25.71;30.64;99288.75;4444814;32;33370;-83
2024/03/30 11:09:48;;;;;;;3.35;1.35;;;;;;;26.11;31.18;99276.91;4457417;32;33892;-83
2024/03/30 11:12:15;;;;;;;1.48;1.02;;;;;;;25.85;32.28;99287.19;4455857;32;33311;-83
2024/03/30 11:14:43;;;;;;;1.70;0.88;;;;;;;26.48;31.22;99275.28;4443784;32;33932;-84
2024/03/30 11:17:12;;;;;;;0.25;0.25;;;;;;;26.60;31.60;99278.41;4441097;32;35182;-83
2024/03/30 11:19:46;;;;;;;7.07;1.42;;;;;;;26.15;31.33;99271.94;4456075;32;33285;-83
2024/03/30 11:22:30;;;;;;;6.55;2.12;;;;;;;26.17;31.50;99270.75;4455997;32;34034;-83
2024/03/30 11:24:58;;;;;;;;;;;;;;;25.88;30.64;99274.16;4467832;32;33540;-83
2024/03/30 11:27:32;;;;;;;0.10;0.00;;;;;;;25.88;30.98;99267.91;4441984;32;32926;-83
2024/03/30 11:30:14;;;;;;;1.02;0.52;;;;;;;26.12;31.09;99273.16;4456716;32;33263;-83
2024/03/30 11:32:44;;;;;;;;;;;;;;;25.51;30.39;99285.63;4455132;32;31660;-83
2024/03/30 11:35:18;;;;;;;0.32;0.32;;;;;;;25.65;30.80;99271.38;4468300;32;33454;-84
2024/03/30 11:37:47;;;;;;;1.92;0.40;;;;;;;26.15;30.11;99261.97;4455220;32;33543;-83
2024/03/30 11:40:20;;;;;;;5.03;1.95;;;;;;;26.18;30.58;99256.19;4465295;31;32896;-83